sensor_id;sensor_type;location;lat;lon;timestamp;pressure;altitude;pressure_sealevel;temperature;humidity
75036;BME280;64247;51.540;5.854;2023-05-16T00:00:42;71600.94;;;-147.87;100.00
75036;BME280;64247;51.540;5.854;2023-05-16T00:02:43;71600.94;;;-147.87;100.00
75036;BME280;64247;51.540;5.854;2023-05-16T00:04:44;71600.94;;;-147.87;100.00
75036;BME280;64247;51.540;5.854;2023-05-16T00:06:45;71600.94;;;-147.87;100.00
75036;BME280;64247;51.540;5.854;2023-05-16T00:08:47;71600.94;;;-147.87;100.00
75036;BME280;64247;51.540;5.854;2023-05-16T00:10:48;71600.94;;;-147.87;100.00
75036;BME280;64247;51.540;5.854;2023-05-16T00:12:49;71600.94;;;-147.87;100.00
75036;BME280;64247;51.540;5.854;2023-05-16T00:14:51;71600.94;;;-147.87;100.00
75036;BME280;64247;51.540;5.854;2023-05-16T00:16:52;71600.94;;;-147.87;100.00
75036;BME280;64247;51.540;5.854;2023-05-16T00:18:54;71600.94;;;-147.87;100.00
75036;BME280;64247;51.540;5.854;2023-05-16T00:20:56;71600.94;;;-147.87;100.00
75036;BME280;64247;51.540;5.854;2023-05-16T00:22:58;71600.94;;;-147.87;100.00
75036;BME280;64247;51.540;5.854;2023-05-16T00:25:02;71600.94;;;-147.87;100.00
75036;BME280;64247;51.540;5.854;2023-05-16T00:27:03;71600.94;;;-147.87;100.00
75036;BME280;64247;51.540;5.854;2023-05-16T00:29:04;101532.53;;;8.98;98.04
75036;BME280;64247;51.540;5.854;2023-05-16T00:31:06;101527.28;;;8.93;98.54
75036;BME280;64247;51.540;5.854;2023-05-16T00:33:07;101533.94;;;8.87;99.29
75036;BME280;64247;51.540;5.854;2023-05-16T00:35:08;101525.81;;;8.87;99.59
75036;BME280;64247;51.540;5.854;2023-05-16T00:37:11;101539.19;;;8.83;99.66
75036;BME280;64247;51.540;5.854;2023-05-16T00:39:12;101542.19;;;8.82;99.71
75036;BME280;64247;51.540;5.854;2023-05-16T00:41:16;101534.38;;;8.80;100.00
75036;BME280;64247;51.540;5.854;2023-05-16T00:43:17;101531.06;;;8.83;99.98
75036;BME280;64247;51.540;5.854;2023-05-16T00:45:18;101534.56;;;8.84;99.47
75036;BME280;64247;51.540;5.854;2023-05-16T00:47:19;101529.31;;;8.87;99.12
75036;BME280;64247;51.540;5.854;2023-05-16T00:49:20;101539.53;;;8.91;98.46
75036;BME280;64247;51.540;5.854;2023-05-16T00:51:21;101537.13;;;8.89;98.53
75036;BME280;64247;51.540;5.854;2023-05-16T00:53:23;101518.50;;;8.87;97.99
75036;BME280;64247;51.540;5.854;2023-05-16T00:55:25;101540.66;;;8.90;97.82
75036;BME280;64247;51.540;5.854;2023-05-16T00:57:26;101541.25;;;8.86;97.62
75036;BME280;64247;51.540;5.854;2023-05-16T00:59:27;101536.47;;;8.83;97.84
75036;BME280;64247;51.540;5.854;2023-05-16T01:01:29;101535.19;;;8.81;97.98
75036;BME280;64247;51.540;5.854;2023-05-16T01:03:31;101532.00;;;8.79;98.07
75036;BME280;64247;51.540;5.854;2023-05-16T01:05:33;101536.59;;;8.78;98.08
75036;BME280;64247;51.540;5.854;2023-05-16T01:07:34;101543.16;;;8.77;98.19
75036;BME280;64247;51.540;5.854;2023-05-16T01:09:35;101544.38;;;8.71;98.16
75036;BME280;64247;51.540;5.854;2023-05-16T01:14:49;101544.00;;;8.64;98.97
75036;BME280;64247;51.540;5.854;2023-05-16T01:17:22;101552.28;;;8.59;99.13
75036;BME280;64247;51.540;5.854;2023-05-16T01:22:41;101551.00;;;8.56;99.20
75036;BME280;64247;51.540;5.854;2023-05-16T01:25:55;101549.31;;;8.46;99.30
75036;BME280;64247;51.540;5.854;2023-05-16T01:28:16;101547.16;;;8.34;100.00
75036;BME280;64247;51.540;5.854;2023-05-16T01:30:18;101555.56;;;8.33;100.00
75036;BME280;64247;51.540;5.854;2023-05-16T01:32:20;101545.66;;;8.28;100.00
75036;BME280;64247;51.540;5.854;2023-05-16T01:34:22;101547.09;;;8.26;100.00
75036;BME280;64247;51.540;5.854;2023-05-16T01:36:25;101548.50;;;8.23;100.00
75036;BME280;64247;51.540;5.854;2023-05-16T01:39:02;101548.31;;;8.19;100.00
75036;BME280;64247;51.540;5.854;2023-05-16T01:44:08;101546.97;;;8.08;100.00
75036;BME280;64247;51.540;5.854;2023-05-16T01:46:32;101545.78;;;8.00;100.00
75036;BME280;64247;51.540;5.854;2023-05-16T01:51:37;101556.16;;;7.84;100.00
75036;BME280;64247;51.540;5.854;2023-05-16T01:53:40;101562.16;;;7.81;100.00
75036;BME280;64247;51.540;5.854;2023-05-16T01:55:48;101558.47;;;7.77;100.00
75036;BME280;64247;51.540;5.854;2023-05-16T01:57:52;101554.47;;;7.74;100.00
75036;BME280;64247;51.540;5.854;2023-05-16T01:59:56;101563.97;;;7.72;100.00
75036;BME280;64247;51.540;5.854;2023-05-16T02:01:58;101569.81;;;7.65;100.00
75036;BME280;64247;51.540;5.854;2023-05-16T02:03:59;101565.59;;;7.59;100.00
75036;BME280;64247;51.540;5.854;2023-05-16T02:06:00;101563.81;;;7.54;100.00
75036;BME280;64247;51.540;5.854;2023-05-16T02:08:01;101567.72;;;7.48;100.00
75036;BME280;64247;51.540;5.854;2023-05-16T02:10:03;101570.53;;;7.43;100.00
75036;BME280;64247;51.540;5.854;2023-05-16T02:12:05;101568.59;;;7.43;100.00
75036;BME280;64247;51.540;5.854;2023-05-16T02:14:06;101566.41;;;7.45;100.00
75036;BME280;64247;51.540;5.854;2023-05-16T02:16:10;101578.13;;;7.41;100.00
75036;BME280;64247;51.540;5.854;2023-05-16T02:18:11;101578.63;;;7.43;100.00
75036;BME280;64247;51.540;5.854;2023-05-16T02:20:12;101582.22;;;7.38;100.00
75036;BME280;64247;51.540;5.854;2023-05-16T02:22:13;101578.53;;;7.34;100.00
75036;BME280;64247;51.540;5.854;2023-05-16T02:24:14;101582.94;;;7.30;100.00
75036;BME280;64247;51.540;5.854;2023-05-16T02:26:15;101581.94;;;7.26;100.00
75036;BME280;64247;51.540;5.854;2023-05-16T02:28:16;101585.34;;;7.18;100.00
75036;BME280;64247;51.540;5.854;2023-05-16T02:30:16;101589.50;;;7.10;100.00
75036;BME280;64247;51.540;5.854;2023-05-16T02:32:17;101584.22;;;7.05;100.00
75036;BME280;64247;51.540;5.854;2023-05-16T02:34:18;101591.81;;;7.03;100.00
75036;BME280;64247;51.540;5.854;2023-05-16T02:36:20;101592.28;;;6.91;100.00
75036;BME280;64247;51.540;5.854;2023-05-16T02:38:22;101598.66;;;6.81;100.00
75036;BME280;64247;51.540;5.854;2023-05-16T02:40:22;101592.34;;;6.72;100.00
75036;BME280;64247;51.540;5.854;2023-05-16T02:42:25;101594.13;;;6.62;100.00
75036;BME280;64247;51.540;5.854;2023-05-16T02:44:30;101601.72;;;6.60;100.00
75036;BME280;64247;51.540;5.854;2023-05-16T02:46:33;101607.34;;;6.45;100.00
75036;BME280;64247;51.540;5.854;2023-05-16T02:48:34;101612.38;;;6.32;100.00
75036;BME280;64247;51.540;5.854;2023-05-16T02:50:36;101617.50;;;6.34;100.00
75036;BME280;64247;51.540;5.854;2023-05-16T02:52:37;101619.91;;;6.36;100.00
75036;BME280;64247;51.540;5.854;2023-05-16T02:54:37;101618.00;;;6.36;100.00
75036;BME280;64247;51.540;5.854;2023-05-16T02:56:38;101619.91;;;6.36;100.00
75036;BME280;64247;51.540;5.854;2023-05-16T02:58:39;101627.31;;;6.44;100.00
75036;BME280;64247;51.540;5.854;2023-05-16T03:00:41;101627.31;;;6.44;100.00
75036;BME280;64247;51.540;5.854;2023-05-16T03:02:43;101628.28;;;6.53;100.00
75036;BME280;64247;51.540;5.854;2023-05-16T03:04:44;101630.16;;;6.53;100.00
75036;BME280;64247;51.540;5.854;2023-05-16T03:06:45;101626.75;;;6.47;100.00
75036;BME280;64247;51.540;5.854;2023-05-16T03:08:46;101630.03;;;6.44;100.00
75036;BME280;64247;51.540;5.854;2023-05-16T03:10:47;101618.00;;;6.36;100.00
75036;BME280;64247;51.540;5.854;2023-05-16T03:12:48;101629.47;;;6.28;100.00
75036;BME280;64247;51.540;5.854;2023-05-16T03:14:49;101633.91;;;6.18;100.00
75036;BME280;64247;51.540;5.854;2023-05-16T03:16:51;101628.50;;;6.18;100.00
75036;BME280;64247;51.540;5.854;2023-05-16T03:18:52;101639.88;;;6.34;100.00
75036;BME280;64247;51.540;5.854;2023-05-16T03:20:53;101636.81;;;6.41;100.00
75036;BME280;64247;51.540;5.854;2023-05-16T03:22:57;101632.56;;;6.54;100.00
75036;BME280;64247;51.540;5.854;2023-05-16T03:24:58;101630.22;;;6.67;100.00
75036;BME280;64247;51.540;5.854;2023-05-16T03:26:59;101633.34;;;6.74;100.00
75036;BME280;64247;51.540;5.854;2023-05-16T03:29:00;101635.44;;;6.77;100.00
75036;BME280;64247;51.540;5.854;2023-05-16T03:31:01;101632.25;;;6.75;100.00
75036;BME280;64247;51.540;5.854;2023-05-16T03:33:02;101639.25;;;6.76;100.00
75036;BME280;64247;51.540;5.854;2023-05-16T03:35:04;101647.34;;;6.76;100.00
75036;BME280;64247;51.540;5.854;2023-05-16T03:37:04;101638.16;;;6.77;100.00
75036;BME280;64247;51.540;5.854;2023-05-16T03:39:06;101650.56;;;6.78;100.00
75036;BME280;64247;51.540;5.854;2023-05-16T03:41:08;101649.16;;;6.80;100.00
75036;BME280;64247;51.540;5.854;2023-05-16T03:43:08;101654.75;;;6.84;100.00
75036;BME280;64247;51.540;5.854;2023-05-16T03:45:10;101653.94;;;6.84;100.00
75036;BME280;64247;51.540;5.854;2023-05-16T03:47:11;101656.06;;;6.87;100.00
75036;BME280;64247;51.540;5.854;2023-05-16T03:49:12;101659.19;;;6.94;100.00
75036;BME280;64247;51.540;5.854;2023-05-16T03:51:13;101658.59;;;6.97;100.00
75036;BME280;64247;51.540;5.854;2023-05-16T03:53:14;101661.50;;;7.01;100.00
75036;BME280;64247;51.540;5.854;2023-05-16T03:55:15;101657.63;;;7.07;100.00
75036;BME280;64247;51.540;5.854;2023-05-16T03:57:16;101660.00;;;7.08;100.00
75036;BME280;64247;51.540;5.854;2023-05-16T03:59:16;101665.03;;;7.15;100.00
75036;BME280;64247;51.540;5.854;2023-05-16T04:01:17;101661.25;;;7.16;100.00
75036;BME280;64247;51.540;5.854;2023-05-16T04:03:18;101660.94;;;7.18;100.00
75036;BME280;64247;51.540;5.854;2023-05-16T04:05:19;101661.25;;;7.16;100.00
75036;BME280;64247;51.540;5.854;2023-05-16T04:07:21;101670.66;;;7.19;100.00
75036;BME280;64247;51.540;5.854;2023-05-16T04:09:22;101673.63;;;7.17;100.00
75036;BME280;64247;51.540;5.854;2023-05-16T04:11:23;101666.03;;;7.19;100.00
75036;BME280;64247;51.540;5.854;2023-05-16T04:13:24;101669.25;;;7.21;100.00
75036;BME280;64247;51.540;5.854;2023-05-16T04:15:25;101668.94;;;7.23;100.00
75036;BME280;64247;51.540;5.854;2023-05-16T04:17:25;101673.66;;;7.31;100.00
75036;BME280;64247;51.540;5.854;2023-05-16T04:19:26;101676.75;;;7.24;100.00
75036;BME280;64247;51.540;5.854;2023-05-16T04:21:27;101681.16;;;7.20;100.00
75036;BME280;64247;51.540;5.854;2023-05-16T04:23:28;101687.94;;;7.18;100.00
75036;BME280;64247;51.540;5.854;2023-05-16T04:25:29;101692.31;;;7.13;100.00
75036;BME280;64247;51.540;5.854;2023-05-16T04:27:30;101688.63;;;7.09;100.00
75036;BME280;64247;51.540;5.854;2023-05-16T04:29:31;101695.41;;;7.07;100.00
75036;BME280;64247;51.540;5.854;2023-05-16T04:31:32;101693.94;;;7.15;100.00
75036;BME280;64247;51.540;5.854;2023-05-16T04:33:33;101698.53;;;7.14;100.00
75036;BME280;64247;51.540;5.854;2023-05-16T04:35:34;101701.34;;;7.23;100.00
75036;BME280;64247;51.540;5.854;2023-05-16T04:37:35;101694.16;;;7.32;100.00
75036;BME280;64247;51.540;5.854;2023-05-16T04:39:36;101705.09;;;7.41;100.00
75036;BME280;64247;51.540;5.854;2023-05-16T04:41:37;101696.41;;;7.44;100.00
75036;BME280;64247;51.540;5.854;2023-05-16T04:43:38;101709.78;;;7.49;100.00
75036;BME280;64247;51.540;5.854;2023-05-16T04:45:40;101699.13;;;7.58;100.00
75036;BME280;64247;51.540;5.854;2023-05-16T04:47:42;101706.75;;;7.70;100.00
75036;BME280;64247;51.540;5.854;2023-05-16T04:49:43;101707.41;;;7.75;100.00
75036;BME280;64247;51.540;5.854;2023-05-16T04:51:44;101710.13;;;7.75;100.00
75036;BME280;64247;51.540;5.854;2023-05-16T04:53:46;101712.81;;;7.75;100.00
75036;BME280;64247;51.540;5.854;2023-05-16T04:55:47;101702.44;;;7.69;100.00
75036;BME280;64247;51.540;5.854;2023-05-16T04:57:48;101710.81;;;7.67;100.00
75036;BME280;64247;51.540;5.854;2023-05-16T04:59:49;101716.31;;;7.62;100.00
75036;BME280;64247;51.540;5.854;2023-05-16T05:01:50;101719.59;;;7.59;100.00
75036;BME280;64247;51.540;5.854;2023-05-16T05:03:50;101731.63;;;7.53;100.00
75036;BME280;64247;51.540;5.854;2023-05-16T05:05:51;101729.53;;;7.50;100.00
75036;BME280;64247;51.540;5.854;2023-05-16T05:07:52;101728.00;;;7.43;100.00
75036;BME280;64247;51.540;5.854;2023-05-16T05:09:53;101728.09;;;7.38;100.00
75036;BME280;64247;51.540;5.854;2023-05-16T05:11:55;101732.50;;;7.34;100.00
75036;BME280;64247;51.540;5.854;2023-05-16T05:13:56;101738.00;;;7.43;100.00
75036;BME280;64247;51.540;5.854;2023-05-16T05:15:57;101733.03;;;7.50;100.00
75036;BME280;64247;51.540;5.854;2023-05-16T05:17:58;101725.44;;;7.52;100.00
75036;BME280;64247;51.540;5.854;2023-05-16T05:19:59;101731.25;;;7.59;100.00
75036;BME280;64247;51.540;5.854;2023-05-16T05:22:00;101724.31;;;7.67;100.00
75036;BME280;64247;51.540;5.854;2023-05-16T05:24:00;101725.03;;;7.73;100.00
75036;BME280;64247;51.540;5.854;2023-05-16T05:26:01;101731.25;;;7.73;100.00
75036;BME280;64247;51.540;5.854;2023-05-16T05:28:02;101735.53;;;7.74;100.00
75036;BME280;64247;51.540;5.854;2023-05-16T05:30:04;101724.53;;;7.85;100.00
75036;BME280;64247;51.540;5.854;2023-05-16T05:32:06;101742.97;;;7.97;100.00
75036;BME280;64247;51.540;5.854;2023-05-16T05:34:07;101735.66;;;7.97;100.00
75036;BME280;64247;51.540;5.854;2023-05-16T05:36:08;101741.47;;;8.04;100.00
75036;BME280;64247;51.540;5.854;2023-05-16T05:38:09;101743.84;;;8.20;100.00
75036;BME280;64247;51.540;5.854;2023-05-16T05:40:10;101742.84;;;8.30;100.00
75036;BME280;64247;51.540;5.854;2023-05-16T05:42:11;101737.81;;;8.37;100.00
75036;BME280;64247;51.540;5.854;2023-05-16T05:44:12;101741.50;;;8.41;100.00
75036;BME280;64247;51.540;5.854;2023-05-16T05:46:13;101751.34;;;8.51;100.00
75036;BME280;64247;51.540;5.854;2023-05-16T05:48:14;101751.53;;;8.54;100.00
75036;BME280;64247;51.540;5.854;2023-05-16T05:50:15;101742.50;;;8.59;100.00
75036;BME280;64247;51.540;5.854;2023-05-16T05:52:16;101752.31;;;8.69;98.77
75036;BME280;64247;51.540;5.854;2023-05-16T05:54:18;101749.19;;;8.76;98.40
75036;BME280;64247;51.540;5.854;2023-05-16T05:56:19;101749.44;;;8.88;98.07
75036;BME280;64247;51.540;5.854;2023-05-16T05:58:20;101746.47;;;8.98;97.82
75036;BME280;64247;51.540;5.854;2023-05-16T06:00:21;101749.56;;;9.06;97.16
75036;BME280;64247;51.540;5.854;2023-05-16T06:02:22;101754.75;;;9.16;95.92
75036;BME280;64247;51.540;5.854;2023-05-16T06:04:23;101761.50;;;9.27;95.81
75036;BME280;64247;51.540;5.854;2023-05-16T06:06:25;101752.63;;;9.35;94.72
75036;BME280;64247;51.540;5.854;2023-05-16T06:08:26;101754.91;;;9.42;95.31
75036;BME280;64247;51.540;5.854;2023-05-16T06:10:26;101754.00;;;9.56;92.33
75036;BME280;64247;51.540;5.854;2023-05-16T06:12:27;101761.53;;;9.59;93.41
75036;BME280;64247;51.540;5.854;2023-05-16T06:14:28;101765.38;;;9.66;93.57
75036;BME280;64247;51.540;5.854;2023-05-16T06:16:29;101764.19;;;9.81;90.62
75036;BME280;64247;51.540;5.854;2023-05-16T06:18:30;101763.91;;;9.92;90.08
75036;BME280;64247;51.540;5.854;2023-05-16T06:20:31;101771.41;;;9.95;89.70
75036;BME280;64247;51.540;5.854;2023-05-16T06:22:32;101766.66;;;10.01;90.91
75036;BME280;64247;51.540;5.854;2023-05-16T06:24:33;101764.59;;;10.15;90.34
75036;BME280;64247;51.540;5.854;2023-05-16T06:26:34;101776.78;;;10.26;89.06
75036;BME280;64247;51.540;5.854;2023-05-16T06:28:35;101772.97;;;10.36;87.81
75036;BME280;64247;51.540;5.854;2023-05-16T06:30:36;101774.94;;;10.44;86.33
75036;BME280;64247;51.540;5.854;2023-05-16T06:32:37;101784.06;;;10.57;86.34
75036;BME280;64247;51.540;5.854;2023-05-16T06:34:40;101785.81;;;10.71;84.95
75036;BME280;64247;51.540;5.854;2023-05-16T06:36:41;101785.16;;;10.74;84.66
75036;BME280;64247;51.540;5.854;2023-05-16T06:38:43;101788.53;;;10.88;84.41
75036;BME280;64247;51.540;5.854;2023-05-16T06:40:44;101790.94;;;10.90;82.69
75036;BME280;64247;51.540;5.854;2023-05-16T06:42:45;101782.91;;;11.11;81.17
75036;BME280;64247;51.540;5.854;2023-05-16T06:44:46;101786.28;;;11.26;80.31
75036;BME280;64247;51.540;5.854;2023-05-16T06:46:47;101774.25;;;11.44;79.95
75036;BME280;64247;51.540;5.854;2023-05-16T06:48:48;101777.56;;;11.59;78.26
75036;BME280;64247;51.540;5.854;2023-05-16T06:50:49;101779.47;;;11.67;77.85
75036;BME280;64247;51.540;5.854;2023-05-16T06:52:53;101781.00;;;11.77;78.71
75036;BME280;64247;51.540;5.854;2023-05-16T06:54:53;101780.63;;;11.96;78.83
75036;BME280;64247;51.540;5.854;2023-05-16T06:56:54;101779.50;;;12.06;77.54
75036;BME280;64247;51.540;5.854;2023-05-16T06:58:55;101784.59;;;12.07;76.59
75036;BME280;64247;51.540;5.854;2023-05-16T07:00:56;101781.84;;;12.16;75.67
75036;BME280;64247;51.540;5.854;2023-05-16T07:02:57;101782.88;;;11.94;77.45
75036;BME280;64247;51.540;5.854;2023-05-16T07:04:58;101774.88;;;11.88;76.99
75036;BME280;64247;51.540;5.854;2023-05-16T07:06:59;101790.31;;;11.76;76.63
75036;BME280;64247;51.540;5.854;2023-05-16T07:09:01;101779.44;;;11.76;75.43
75036;BME280;64247;51.540;5.854;2023-05-16T07:11:02;101759.94;;;11.74;74.83
75036;BME280;64247;51.540;5.854;2023-05-16T07:13:02;101796.34;;;11.90;73.81
75036;BME280;64247;51.540;5.854;2023-05-16T07:15:04;101783.63;;;12.12;73.51
75036;BME280;64247;51.540;5.854;2023-05-16T07:17:06;101785.53;;;12.11;70.85
75036;BME280;64247;51.540;5.854;2023-05-16T07:19:07;101787.91;;;12.22;72.26
75036;BME280;64247;51.540;5.854;2023-05-16T07:21:08;101786.34;;;12.42;71.57
75036;BME280;64247;51.540;5.854;2023-05-16T07:23:09;101789.00;;;12.50;70.87
75036;BME280;64247;51.540;5.854;2023-05-16T07:25:10;101791.75;;;12.72;71.89
75036;BME280;64247;51.540;5.854;2023-05-16T07:27:12;101788.63;;;12.61;71.46
75036;BME280;64247;51.540;5.854;2023-05-16T07:29:12;101808.28;;;12.66;70.97
75036;BME280;64247;51.540;5.854;2023-05-16T07:31:13;101803.91;;;12.74;71.04
75036;BME280;64247;51.540;5.854;2023-05-16T07:33:16;101803.38;;;12.81;71.26
75036;BME280;64247;51.540;5.854;2023-05-16T07:35:17;101795.72;;;12.95;69.44
75036;BME280;64247;51.540;5.854;2023-05-16T07:37:18;101804.50;;;13.35;69.06
75036;BME280;64247;51.540;5.854;2023-05-16T07:39:19;101797.28;;;13.39;67.49
75036;BME280;64247;51.540;5.854;2023-05-16T07:41:20;101803.25;;;13.32;67.37
75036;BME280;64247;51.540;5.854;2023-05-16T07:43:21;101803.41;;;13.14;67.05
75036;BME280;64247;51.540;5.854;2023-05-16T07:45:22;101795.84;;;12.99;68.10
75036;BME280;64247;51.540;5.854;2023-05-16T07:47:23;101800.31;;;13.04;69.09
75036;BME280;64247;51.540;5.854;2023-05-16T07:49:25;101810.00;;;13.13;69.21
75036;BME280;64247;51.540;5.854;2023-05-16T07:51:26;101808.13;;;13.05;68.30
75036;BME280;64247;51.540;5.854;2023-05-16T07:53:27;71600.94;;;-147.87;100.00
75036;BME280;64247;51.540;5.854;2023-05-16T07:55:27;71600.94;;;-147.87;100.00
75036;BME280;64247;51.540;5.854;2023-05-16T07:57:28;71600.94;;;-147.87;100.00
75036;BME280;64247;51.540;5.854;2023-05-16T07:59:29;71600.94;;;-147.87;100.00
75036;BME280;64247;51.540;5.854;2023-05-16T08:01:30;71600.94;;;-147.87;100.00
75036;BME280;64247;51.540;5.854;2023-05-16T08:03:31;71600.94;;;-147.87;100.00
75036;BME280;64247;51.540;5.854;2023-05-16T08:05:32;71600.94;;;-147.87;100.00
75036;BME280;64247;51.540;5.854;2023-05-16T08:07:32;71600.94;;;-147.87;100.00
75036;BME280;64247;51.540;5.854;2023-05-16T08:09:33;71600.94;;;-147.87;100.00
75036;BME280;64247;51.540;5.854;2023-05-16T08:11:34;71600.94;;;-147.87;100.00
75036;BME280;64247;51.540;5.854;2023-05-16T08:13:35;71600.94;;;-147.87;100.00
75036;BME280;64247;51.540;5.854;2023-05-16T08:15:36;71600.94;;;-147.87;100.00
75036;BME280;64247;51.540;5.854;2023-05-16T08:17:37;71600.94;;;-147.87;100.00
75036;BME280;64247;51.540;5.854;2023-05-16T08:19:37;71600.94;;;-147.87;100.00
75036;BME280;64247;51.540;5.854;2023-05-16T08:21:38;71600.94;;;-147.87;100.00
75036;BME280;64247;51.540;5.854;2023-05-16T08:23:40;71600.94;;;-147.87;100.00
75036;BME280;64247;51.540;5.854;2023-05-16T08:25:41;71600.94;;;-147.87;100.00
75036;BME280;64247;51.540;5.854;2023-05-16T08:27:43;71600.94;;;-147.87;100.00
75036;BME280;64247;51.540;5.854;2023-05-16T08:29:44;71600.94;;;-147.87;100.00
75036;BME280;64247;51.540;5.854;2023-05-16T08:31:45;71600.94;;;-147.87;100.00
75036;BME280;64247;51.540;5.854;2023-05-16T08:33:46;71600.94;;;-147.87;100.00
75036;BME280;64247;51.540;5.854;2023-05-16T08:35:47;71600.94;;;-147.87;100.00
75036;BME280;64247;51.540;5.854;2023-05-16T08:37:52;71600.94;;;-147.87;100.00
75036;BME280;64247;51.540;5.854;2023-05-16T08:39:53;71600.94;;;-147.87;100.00
75036;BME280;64247;51.540;5.854;2023-05-16T08:41:53;71600.94;;;-147.87;100.00
75036;BME280;64247;51.540;5.854;2023-05-16T08:43:54;71600.94;;;-147.87;100.00
75036;BME280;64247;51.540;5.854;2023-05-16T08:45:55;71600.94;;;-147.87;100.00
75036;BME280;64247;51.540;5.854;2023-05-16T08:47:56;71600.94;;;-147.87;100.00
75036;BME280;64247;51.540;5.854;2023-05-16T08:50:02;71600.94;;;-147.87;100.00
75036;BME280;64247;51.540;5.854;2023-05-16T08:52:06;71600.94;;;-147.87;100.00
75036;BME280;64247;51.540;5.854;2023-05-16T08:54:12;71600.94;;;-147.87;100.00
75036;BME280;64247;51.540;5.854;2023-05-16T08:56:13;71600.94;;;-147.87;100.00
75036;BME280;64247;51.540;5.854;2023-05-16T08:58:16;71600.94;;;-147.87;100.00
75036;BME280;64247;51.540;5.854;2023-05-16T09:00:17;71600.94;;;-147.87;100.00
75036;BME280;64247;51.540;5.854;2023-05-16T09:02:20;71600.94;;;-147.87;100.00
75036;BME280;64247;51.540;5.854;2023-05-16T09:04:22;71600.94;;;-147.87;100.00
75036;BME280;64247;51.540;5.854;2023-05-16T09:06:26;71600.94;;;-147.87;100.00
75036;BME280;64247;51.540;5.854;2023-05-16T09:08:26;71600.94;;;-147.87;100.00
75036;BME280;64247;51.540;5.854;2023-05-16T09:10:27;71600.94;;;-147.87;100.00
75036;BME280;64247;51.540;5.854;2023-05-16T09:12:28;71600.94;;;-147.87;100.00
75036;BME280;64247;51.540;5.854;2023-05-16T09:14:29;71600.94;;;-147.87;100.00
75036;BME280;64247;51.540;5.854;2023-05-16T09:16:30;71600.94;;;-147.87;100.00
75036;BME280;64247;51.540;5.854;2023-05-16T09:18:31;71600.94;;;-147.87;100.00
75036;BME280;64247;51.540;5.854;2023-05-16T09:20:31;71600.94;;;-147.87;100.00
75036;BME280;64247;51.540;5.854;2023-05-16T09:22:32;71600.94;;;-147.87;100.00
75036;BME280;64247;51.540;5.854;2023-05-16T09:24:37;71600.94;;;-147.87;100.00
75036;BME280;64247;51.540;5.854;2023-05-16T09:26:38;71600.94;;;-147.87;100.00
75036;BME280;64247;51.540;5.854;2023-05-16T09:28:39;71600.94;;;-147.87;100.00
75036;BME280;64247;51.540;5.854;2023-05-16T09:30:45;71600.94;;;-147.87;100.00
75036;BME280;64247;51.540;5.854;2023-05-16T09:32:46;71600.94;;;-147.87;100.00
75036;BME280;64247;51.540;5.854;2023-05-16T09:34:47;71600.94;;;-147.87;100.00
75036;BME280;64247;51.540;5.854;2023-05-16T09:36:53;101793.09;;;16.30;48.50
75036;BME280;64247;51.540;5.854;2023-05-16T09:38:54;101787.31;;;16.00;49.28
75036;BME280;64247;51.540;5.854;2023-05-16T09:40:55;101799.38;;;15.67;49.49
75036;BME280;64247;51.540;5.854;2023-05-16T09:43:05;101793.72;;;15.44;50.39
75036;BME280;64247;51.540;5.854;2023-05-16T09:45:11;101797.13;;;15.41;50.31
75036;BME280;64247;51.540;5.854;2023-05-16T09:47:17;101801.22;;;15.63;50.84
75036;BME280;64247;51.540;5.854;2023-05-16T09:49:19;101782.88;;;15.79;50.17
75036;BME280;64247;51.540;5.854;2023-05-16T09:51:23;101785.13;;;15.90;49.67
75036;BME280;64247;51.540;5.854;2023-05-16T09:53:28;101788.72;;;15.94;51.58
75036;BME280;64247;51.540;5.854;2023-05-16T09:55:31;101810.94;;;15.60;51.33
75036;BME280;64247;51.540;5.854;2023-05-16T09:57:32;101796.81;;;15.14;51.48
75036;BME280;64247;51.540;5.854;2023-05-16T09:59:37;101821.22;;;14.78;51.69
75036;BME280;64247;51.540;5.854;2023-05-16T10:01:38;101810.88;;;14.59;51.43
75036;BME280;64247;51.540;5.854;2023-05-16T10:03:41;101815.53;;;14.46;52.66
75036;BME280;64247;51.540;5.854;2023-05-16T10:05:43;101818.63;;;14.45;52.76
75036;BME280;64247;51.540;5.854;2023-05-16T10:07:44;101819.09;;;14.47;53.51
75036;BME280;64247;51.540;5.854;2023-05-16T10:09:45;101814.50;;;14.63;54.41
75036;BME280;64247;51.540;5.854;2023-05-16T10:11:50;101822.69;;;14.76;54.72
75036;BME280;64247;51.540;5.854;2023-05-16T10:13:53;101813.22;;;14.85;54.88
75036;BME280;64247;51.540;5.854;2023-05-16T10:15:58;101811.50;;;14.93;55.23
75036;BME280;64247;51.540;5.854;2023-05-16T10:18:01;101806.91;;;15.26;56.34
75036;BME280;64247;51.540;5.854;2023-05-16T10:20:09;101806.09;;;15.70;56.47
75036;BME280;64247;51.540;5.854;2023-05-16T10:22:12;101808.94;;;15.73;54.37
75036;BME280;64247;51.540;5.854;2023-05-16T10:24:23;101819.44;;;15.71;52.67
75036;BME280;64247;51.540;5.854;2023-05-16T10:26:28;101809.31;;;15.88;46.42
75036;BME280;64247;51.540;5.854;2023-05-16T10:28:31;101805.25;;;15.97;45.74
75036;BME280;64247;51.540;5.854;2023-05-16T10:30:34;101807.28;;;16.01;45.38
75036;BME280;64247;51.540;5.854;2023-05-16T10:32:37;101802.75;;;16.08;47.72
75036;BME280;64247;51.540;5.854;2023-05-16T10:34:40;101809.28;;;16.20;46.26
75036;BME280;64247;51.540;5.854;2023-05-16T10:36:43;101803.00;;;16.19;44.52
75036;BME280;64247;51.540;5.854;2023-05-16T10:38:46;101811.50;;;16.14;47.02
75036;BME280;64247;51.540;5.854;2023-05-16T10:40:49;101802.13;;;16.15;46.45
75036;BME280;64247;51.540;5.854;2023-05-16T10:42:55;101804.31;;;16.25;46.82
75036;BME280;64247;51.540;5.854;2023-05-16T10:45:16;101793.25;;;16.38;46.17
75036;BME280;64247;51.540;5.854;2023-05-16T10:47:20;101792.56;;;16.60;46.80
75036;BME280;64247;51.540;5.854;2023-05-16T10:49:25;101799.19;;;16.59;48.13